createdAt,value
2018-08-24T00:00:35.186Z,14.97
2018-08-24T00:01:35.124Z,14.8
2018-08-24T00:02:35.336Z,14.69
2018-08-24T00:03:35.094Z,14.79
2018-08-24T00:04:35.165Z,14.77
2018-08-24T00:05:35.216Z,14.79
2018-08-24T00:06:35.128Z,14.83
2018-08-24T00:07:35.148Z,15.06
2018-08-24T00:08:35.443Z,14.93
2018-08-24T00:09:35.210Z,14.87
2018-08-24T00:10:35.274Z,14.9
2018-08-24T00:11:35.213Z,14.82
2018-08-24T00:12:35.109Z,14.83
2018-08-24T00:13:35.130Z,14.69
2018-08-24T00:14:35.179Z,14.91
2018-08-24T00:15:35.250Z,14.94
2018-08-24T00:16:35.210Z,14.84
2018-08-24T00:17:35.155Z,14.92
2018-08-24T00:18:35.124Z,14.92
2018-08-24T00:19:35.120Z,14.8
2018-08-24T00:20:35.179Z,14.85
2018-08-24T00:21:35.397Z,14.88
2018-08-24T00:22:35.201Z,14.95
2018-08-24T00:23:35.295Z,14.8
2018-08-24T00:24:35.118Z,14.95
2018-08-24T00:25:35.145Z,15.02
2018-08-24T00:26:35.131Z,14.93
2018-08-24T00:27:35.121Z,14.99
2018-08-24T00:28:35.528Z,14.95
2018-08-24T00:29:35.137Z,14.98
2018-08-24T00:30:35.241Z,15.07
2018-08-24T00:31:35.638Z,14.94
2018-08-24T00:32:35.257Z,14.79
2018-08-24T00:33:35.220Z,14.85
2018-08-24T00:34:35.165Z,14.96
2018-08-24T00:35:35.164Z,14.88
2018-08-24T00:36:35.349Z,14.79
2018-08-24T00:37:35.259Z,14.85
2018-08-24T00:38:35.160Z,14.83
2018-08-24T00:39:35.248Z,14.91
2018-08-24T00:40:35.339Z,14.73
2018-08-24T00:41:37.052Z,14.93
2018-08-24T00:42:35.538Z,14.82
2018-08-24T00:43:35.142Z,14.8
2018-08-24T00:44:35.162Z,14.81
2018-08-24T00:45:35.134Z,14.74
2018-08-24T00:46:35.424Z,14.82
2018-08-24T00:47:35.246Z,14.69
2018-08-24T00:48:35.671Z,14.67
2018-08-24T00:49:35.195Z,14.69
2018-08-24T00:50:35.308Z,14.99
2018-08-24T00:51:35.320Z,14.76
2018-08-24T00:52:35.167Z,14.74
2018-08-24T00:53:35.250Z,15.01
2018-08-24T00:54:35.286Z,14.8
2018-08-24T00:55:35.265Z,14.77
2018-08-24T00:56:35.178Z,14.75
2018-08-24T00:57:35.223Z,14.76
2018-08-24T00:58:35.331Z,14.6
2018-08-24T00:59:35.169Z,14.71
2018-08-24T01:00:35.379Z,14.64
2018-08-24T01:01:35.184Z,14.68
2018-08-24T01:02:35.224Z,14.63
2018-08-24T01:03:35.201Z,14.72
2018-08-24T01:04:35.295Z,14.62
2018-08-24T01:05:35.309Z,14.67
2018-08-24T01:06:35.210Z,14.69
2018-08-24T01:07:35.735Z,14.67
2018-08-24T01:08:35.472Z,14.62
2018-08-24T01:09:35.425Z,14.71
2018-08-24T01:10:35.232Z,14.62
2018-08-24T01:11:35.500Z,14.7
2018-08-24T01:12:35.235Z,14.6
2018-08-24T01:13:35.361Z,14.71
2018-08-24T01:14:35.270Z,14.73
2018-08-24T01:15:35.326Z,14.79
2018-08-24T01:16:35.342Z,14.73
2018-08-24T01:17:35.226Z,14.67
2018-08-24T01:18:35.189Z,14.9
2018-08-24T01:19:35.228Z,14.67
2018-08-24T01:20:35.226Z,14.73
2018-08-24T01:21:35.238Z,14.84
2018-08-24T01:22:35.215Z,14.75
2018-08-24T01:23:35.231Z,14.81
2018-08-24T01:24:35.203Z,14.72
2018-08-24T01:25:35.209Z,14.77
2018-08-24T01:26:35.248Z,14.72
2018-08-24T01:27:35.179Z,14.67
2018-08-24T01:28:35.190Z,14.7
2018-08-24T01:29:35.339Z,14.66
2018-08-24T01:30:35.214Z,14.71
2018-08-24T01:31:35.260Z,14.78
2018-08-24T01:32:35.214Z,14.82
2018-08-24T01:33:35.237Z,14.89
2018-08-24T01:34:35.207Z,14.83
2018-08-24T01:35:35.238Z,14.7
2018-08-24T01:36:35.513Z,14.76
2018-08-24T01:37:35.243Z,14.99
2018-08-24T01:38:35.237Z,14.81
2018-08-24T01:39:35.205Z,14.92
2018-08-24T01:40:35.341Z,14.82
2018-08-24T01:41:35.209Z,14.77
2018-08-24T01:42:35.198Z,14.78
2018-08-24T01:43:35.246Z,14.61
2018-08-24T01:44:35.701Z,14.8
2018-08-24T01:45:35.410Z,14.72
2018-08-24T01:46:35.228Z,14.8
2018-08-24T01:47:35.307Z,14.79
2018-08-24T01:48:35.358Z,14.81
2018-08-24T01:49:35.213Z,14.84
2018-08-24T01:50:35.332Z,14.74
2018-08-24T01:51:35.467Z,14.78
2018-08-24T01:52:35.359Z,14.62
2018-08-24T01:53:35.238Z,14.7
2018-08-24T01:54:35.288Z,14.94
2018-08-24T01:55:35.396Z,14.92
2018-08-24T01:56:35.401Z,14.76
2018-08-24T01:57:35.250Z,14.65
2018-08-24T01:58:35.286Z,14.75
2018-08-24T01:59:35.276Z,14.8
2018-08-24T02:00:35.341Z,14.78
2018-08-24T02:01:35.276Z,14.81
2018-08-24T02:02:35.323Z,14.61
2018-08-24T02:03:35.256Z,14.74
2018-08-24T02:04:35.650Z,14.65
2018-08-24T02:05:35.313Z,14.66
2018-08-24T02:06:35.310Z,14.61
2018-08-24T02:07:35.269Z,14.71
2018-08-24T02:08:35.424Z,14.81
2018-08-24T02:09:35.371Z,14.59
2018-08-24T02:10:35.347Z,14.78
2018-08-24T02:11:35.400Z,14.73
2018-08-24T02:12:35.266Z,14.77
2018-08-24T02:13:35.338Z,14.88
2018-08-24T02:14:36.069Z,14.81
2018-08-24T02:15:35.443Z,14.91
2018-08-24T02:16:35.401Z,14.83
2018-08-24T02:17:35.354Z,14.58
2018-08-24T02:18:35.241Z,14.58
2018-08-24T02:19:35.298Z,14.73
2018-08-24T02:20:35.327Z,14.72
2018-08-24T02:21:35.369Z,14.62
2018-08-24T02:22:35.623Z,14.57
2018-08-24T02:23:35.382Z,14.58
2018-08-24T02:24:35.382Z,14.77
2018-08-24T02:25:35.450Z,14.54
2018-08-24T02:26:35.381Z,14.65
2018-08-24T02:27:35.436Z,14.89
2018-08-24T02:28:35.290Z,14.84
2018-08-24T02:29:36.437Z,14.88
2018-08-24T02:30:35.388Z,14.85
2018-08-24T02:31:35.563Z,14.63
2018-08-24T02:32:35.318Z,14.62
2018-08-24T02:33:35.351Z,14.57
2018-08-24T02:34:35.408Z,14.54
2018-08-24T02:35:35.415Z,14.65
2018-08-24T02:36:35.441Z,14.57
2018-08-24T02:37:35.562Z,14.67
2018-08-24T02:38:35.430Z,14.69
2018-08-24T02:39:35.364Z,14.55
2018-08-24T02:40:35.397Z,14.6
2018-08-24T02:41:35.390Z,14.47
2018-08-24T02:42:35.557Z,14.43
2018-08-24T02:43:35.569Z,14.49
2018-08-24T02:44:35.449Z,14.52
2018-08-24T02:45:35.462Z,14.66
2018-08-24T02:46:35.379Z,14.63
2018-08-24T02:47:35.517Z,14.5
2018-08-24T02:48:35.352Z,14.57
2018-08-24T02:49:35.428Z,14.44
2018-08-24T02:50:35.513Z,14.48
2018-08-24T02:51:35.431Z,14.56
2018-08-24T02:52:35.368Z,14.6
2018-08-24T02:53:35.714Z,14.54
2018-08-24T02:54:35.371Z,14.46
2018-08-24T02:55:35.426Z,14.45
2018-08-24T02:56:35.436Z,14.44
2018-08-24T02:57:35.337Z,14.52
2018-08-24T02:58:35.422Z,14.52
2018-08-24T02:59:35.392Z,14.47
2018-08-24T03:00:35.462Z,14.59
2018-08-24T03:01:35.334Z,14.61
2018-08-24T03:02:35.670Z,14.49
2018-08-24T03:03:35.348Z,14.55
2018-08-24T03:04:35.341Z,14.56
2018-08-24T03:05:37.088Z,14.68
2018-08-24T03:06:35.372Z,14.68
2018-08-24T03:07:35.407Z,14.63
2018-08-24T03:08:35.361Z,14.72
2018-08-24T03:09:35.356Z,14.69
2018-08-24T03:10:35.491Z,14.76
2018-08-24T03:11:35.393Z,14.61
2018-08-24T03:12:35.332Z,14.49
2018-08-24T03:13:35.477Z,14.56
2018-08-24T03:14:35.447Z,14.56
2018-08-24T03:15:35.413Z,14.58
2018-08-24T03:16:35.365Z,14.72
2018-08-24T03:17:35.346Z,14.68
2018-08-24T03:18:35.339Z,14.71
2018-08-24T03:19:35.436Z,14.83
2018-08-24T03:20:35.434Z,14.81
2018-08-24T03:21:35.831Z,14.77
2018-08-24T03:22:35.358Z,14.72
2018-08-24T03:23:35.375Z,14.73
2018-08-24T03:24:35.405Z,14.9
2018-08-24T03:25:35.485Z,14.75
2018-08-24T03:26:35.399Z,14.82
2018-08-24T03:27:35.539Z,14.74
2018-08-24T03:28:35.377Z,14.58
2018-08-24T03:29:35.369Z,14.72
2018-08-24T03:30:35.416Z,14.65
2018-08-24T03:31:35.495Z,14.68
2018-08-24T03:32:35.545Z,14.77
2018-08-24T03:33:36.029Z,14.82
2018-08-24T03:34:35.678Z,14.67
2018-08-24T03:35:35.494Z,14.83
2018-08-24T03:36:35.491Z,14.78
2018-08-24T03:37:35.357Z,14.78
2018-08-24T03:38:35.387Z,14.66
2018-08-24T03:39:35.420Z,14.59
2018-08-24T03:40:35.439Z,14.6
2018-08-24T03:41:35.436Z,14.79
2018-08-24T03:42:35.371Z,14.78
2018-08-24T03:43:35.425Z,14.72
2018-08-24T03:44:35.439Z,14.63
2018-08-24T03:45:35.567Z,14.62
2018-08-24T03:46:35.543Z,14.7
2018-08-24T03:47:35.525Z,14.71
2018-08-24T03:48:35.496Z,14.5
2018-08-24T03:50:00.140Z,14.52
2018-08-24T03:50:35.512Z,14.49
2018-08-24T03:51:35.388Z,14.49
2018-08-24T03:52:35.458Z,14.56
2018-08-24T03:53:36.076Z,14.52
2018-08-24T03:54:41.549Z,14.63
2018-08-24T03:55:35.456Z,14.61
2018-08-24T03:56:35.539Z,14.52
2018-08-24T03:57:35.426Z,14.55
2018-08-24T03:58:39.522Z,14.54
2018-08-24T03:59:47.319Z,14.4
2018-08-24T04:00:35.448Z,14.46
2018-08-24T04:01:37.127Z,14.47
2018-08-24T04:02:35.584Z,14.36
2018-08-24T04:03:35.493Z,14.36
2018-08-24T04:04:35.394Z,14.39
2018-08-24T04:05:35.453Z,14.48
2018-08-24T04:06:35.624Z,14.42
2018-08-24T04:07:35.533Z,14.46
2018-08-24T04:08:38.001Z,14.36
2018-08-24T04:09:35.427Z,14.49
2018-08-24T04:10:35.571Z,14.37
2018-08-24T04:11:35.437Z,14.3
2018-08-24T04:12:35.483Z,14.39
2018-08-24T04:13:35.494Z,14.47
2018-08-24T04:14:35.453Z,14.44
2018-08-24T04:15:35.704Z,14.36
2018-08-24T04:16:35.510Z,14.33
2018-08-24T04:17:35.436Z,14.37
2018-08-24T04:18:35.403Z,14.37
2018-08-24T04:19:36.611Z,14.35
2018-08-24T04:20:35.414Z,14.49
2018-08-24T04:21:35.612Z,14.44
2018-08-24T04:22:35.759Z,14.42
2018-08-24T04:23:35.530Z,14.61
2018-08-24T04:24:35.641Z,14.54
2018-08-24T04:25:35.891Z,14.44
2018-08-24T04:26:36.256Z,14.59
2018-08-24T04:27:35.489Z,14.57
2018-08-24T04:28:35.708Z,14.64
2018-08-24T04:29:35.544Z,14.43
2018-08-24T04:30:35.526Z,14.62
2018-08-24T04:31:35.702Z,14.49
2018-08-24T04:32:36.071Z,14.46
2018-08-24T04:33:35.640Z,14.48
2018-08-24T04:34:36.870Z,14.59
2018-08-24T04:35:35.626Z,14.48
2018-08-24T04:36:35.530Z,14.59
2018-08-24T04:37:35.490Z,14.59
2018-08-24T04:38:35.450Z,14.58
2018-08-24T04:39:35.651Z,14.56
2018-08-24T04:40:35.552Z,14.45
2018-08-24T04:41:35.807Z,14.66
2018-08-24T04:42:35.510Z,14.58
2018-08-24T04:43:35.467Z,14.54
2018-08-24T04:44:35.609Z,14.59
2018-08-24T04:45:36.492Z,14.69
2018-08-24T04:46:35.664Z,14.61
2018-08-24T04:47:35.588Z,14.68
2018-08-24T04:48:35.548Z,14.63
2018-08-24T04:49:36.137Z,14.55
2018-08-24T04:50:35.888Z,14.49
2018-08-24T04:51:37.589Z,14.6
2018-08-24T04:52:35.556Z,14.64
2018-08-24T04:53:35.469Z,14.56
2018-08-24T04:54:35.502Z,14.48
2018-08-24T04:55:35.723Z,14.5
2018-08-24T04:56:35.684Z,14.47
2018-08-24T04:57:35.684Z,14.49
2018-08-24T04:58:35.486Z,14.62
2018-08-24T04:59:35.602Z,14.58
2018-08-24T05:00:35.800Z,14.54
2018-08-24T05:01:35.580Z,14.59
2018-08-24T05:02:35.589Z,14.67
2018-08-24T05:03:35.666Z,14.62
2018-08-24T05:04:35.669Z,14.71
2018-08-24T05:05:36.709Z,14.7
2018-08-24T05:06:35.939Z,14.64
2018-08-24T05:07:35.681Z,14.58
2018-08-24T05:08:35.574Z,14.53
2018-08-24T05:09:35.625Z,14.73
2018-08-24T05:10:35.987Z,14.72
2018-08-24T05:11:35.805Z,14.71
2018-08-24T05:12:35.637Z,14.67
2018-08-24T05:13:35.849Z,14.69
2018-08-24T05:14:35.550Z,14.63
2018-08-24T05:15:35.710Z,14.66
2018-08-24T05:16:35.586Z,14.65
2018-08-24T05:17:35.521Z,14.62
2018-08-24T05:18:35.598Z,14.61
2018-08-24T05:19:35.562Z,14.65
2018-08-24T05:20:35.655Z,14.6
2018-08-24T05:21:35.548Z,14.75
2018-08-24T05:22:35.864Z,14.67
2018-08-24T05:23:35.551Z,14.7
2018-08-24T05:24:35.851Z,14.54
2018-08-24T05:25:36.241Z,14.54
2018-08-24T05:26:35.646Z,14.57
2018-08-24T05:27:35.493Z,14.6
2018-08-24T05:28:36.232Z,14.52
2018-08-24T05:29:35.574Z,14.67
2018-08-24T05:30:35.647Z,14.66
2018-08-24T05:31:35.638Z,14.62
2018-08-24T05:32:35.626Z,14.56
2018-08-24T05:33:36.506Z,14.51
2018-08-24T05:34:35.648Z,14.45
2018-08-24T05:35:36.171Z,14.47
2018-08-24T05:36:35.640Z,14.61
2018-08-24T05:37:35.577Z,14.56
2018-08-24T05:38:35.584Z,14.51
2018-08-24T05:39:35.572Z,14.53
2018-08-24T05:40:35.673Z,14.59
2018-08-24T05:41:36.025Z,14.7
2018-08-24T05:42:37.741Z,14.73
2018-08-24T05:43:35.525Z,14.73
2018-08-24T05:44:35.633Z,14.68
2018-08-24T05:45:35.600Z,14.61
2018-08-24T05:46:35.688Z,14.71
2018-08-24T05:47:35.689Z,14.64
2018-08-24T05:48:35.621Z,14.7
2018-08-24T05:49:36.014Z,14.64
2018-08-24T05:50:35.604Z,14.67
2018-08-24T05:51:36.309Z,14.66
2018-08-24T05:52:36.392Z,14.65
2018-08-24T05:53:35.531Z,14.64
2018-08-24T05:54:35.683Z,14.64
2018-08-24T05:55:36.363Z,14.55
2018-08-24T05:56:35.569Z,14.56
2018-08-24T05:57:36.459Z,14.53
2018-08-24T05:58:35.606Z,14.48
2018-08-24T05:59:35.774Z,14.46
2018-08-24T06:00:35.650Z,14.51
2018-08-24T06:01:36.410Z,14.53
2018-08-24T06:02:35.754Z,14.53
2018-08-24T06:03:35.661Z,14.43
2018-08-24T06:04:35.694Z,14.51
2018-08-24T06:05:35.988Z,14.52
2018-08-24T06:06:35.616Z,14.57
2018-08-24T06:07:36.017Z,14.49
2018-08-24T06:08:35.683Z,14.56
2018-08-24T06:09:35.609Z,14.51
2018-08-24T06:10:35.666Z,14.58
2018-08-24T06:11:35.882Z,14.55
2018-08-24T06:12:35.710Z,14.54
2018-08-24T06:13:35.724Z,14.51
2018-08-24T06:14:35.568Z,14.52
2018-08-24T06:15:35.677Z,14.58
2018-08-24T06:16:35.838Z,14.61
2018-08-24T06:17:35.749Z,14.64
2018-08-24T06:18:35.682Z,14.62
2018-08-24T06:19:35.689Z,14.55
2018-08-24T06:20:35.783Z,14.53
2018-08-24T06:21:35.848Z,14.52
2018-08-24T06:22:35.797Z,14.59
2018-08-24T06:23:35.772Z,14.53
2018-08-24T06:24:36.677Z,14.52
2018-08-24T06:25:35.776Z,14.52
2018-08-24T06:26:35.716Z,14.54
2018-08-24T06:27:36.158Z,14.46
2018-08-24T06:28:35.766Z,14.48
2018-08-24T06:29:35.738Z,14.55
2018-08-24T06:30:35.671Z,14.5
2018-08-24T06:31:36.479Z,14.5
2018-08-24T06:32:35.681Z,14.53
2018-08-24T06:33:36.092Z,14.46
2018-08-24T06:34:35.607Z,14.45
2018-08-24T06:35:35.778Z,14.46
2018-08-24T06:36:35.610Z,14.56
2018-08-24T06:37:35.618Z,14.5
2018-08-24T06:38:35.691Z,14.53
2018-08-24T06:39:35.621Z,14.49
2018-08-24T06:40:35.738Z,14.49
2018-08-24T06:41:35.715Z,14.49
2018-08-24T06:42:35.615Z,14.43
2018-08-24T06:43:36.513Z,14.44
2018-08-24T06:44:36.748Z,14.42
2018-08-24T06:45:35.742Z,14.52
2018-08-24T06:46:35.802Z,14.41
2018-08-24T06:47:36.370Z,14.51
2018-08-24T06:48:36.343Z,14.52
2018-08-24T06:49:35.839Z,14.46
2018-08-24T06:50:35.745Z,14.51
2018-08-24T06:51:35.611Z,14.39
2018-08-24T06:52:36.435Z,14.42
2018-08-24T06:53:36.821Z,14.44
2018-08-24T06:54:35.631Z,14.45
2018-08-24T06:55:35.775Z,14.36
2018-08-24T06:56:35.657Z,14.33
2018-08-24T06:57:35.645Z,14.44
2018-08-24T06:58:35.661Z,14.41
2018-08-24T06:59:36.047Z,14.46
2018-08-24T07:00:35.749Z,14.41
2018-08-24T07:01:35.682Z,14.44
2018-08-24T07:02:35.946Z,14.41
2018-08-24T07:03:35.736Z,14.39
2018-08-24T07:04:35.745Z,14.52
2018-08-24T07:05:36.279Z,14.56
2018-08-24T07:06:35.644Z,14.52
2018-08-24T07:07:35.618Z,14.49
2018-08-24T07:08:35.626Z,14.53
2018-08-24T07:09:35.866Z,14.55
2018-08-24T07:10:35.911Z,14.61
2018-08-24T07:11:35.794Z,14.69
2018-08-24T07:12:35.849Z,14.74
2018-08-24T07:13:36.693Z,14.7
2018-08-24T07:14:36.684Z,14.68
2018-08-24T07:15:35.678Z,14.8
2018-08-24T07:16:35.655Z,14.78
2018-08-24T07:17:35.749Z,14.65
2018-08-24T07:18:35.712Z,14.54
2018-08-24T07:19:35.805Z,14.63
2018-08-24T07:20:35.702Z,14.73
2018-08-24T07:21:36.963Z,14.63
2018-08-24T07:22:35.764Z,14.51
2018-08-24T07:23:35.730Z,14.39
2018-08-24T07:24:35.748Z,14.47
2018-08-24T07:25:35.765Z,14.56
2018-08-24T07:26:36.285Z,14.57
2018-08-24T07:27:35.680Z,14.37
2018-08-24T07:28:35.667Z,14.37
2018-08-24T07:29:36.197Z,14.25
2018-08-24T07:30:36.307Z,14.33
2018-08-24T07:31:35.737Z,14.19
2018-08-24T07:32:36.237Z,14.28
2018-08-24T07:33:35.807Z,14.5
2018-08-24T07:34:36.421Z,14.33
2018-08-24T07:35:35.928Z,14.22
2018-08-24T07:36:35.708Z,14.17
2018-08-24T07:37:35.744Z,14.38
2018-08-24T07:38:36.094Z,14.26
2018-08-24T07:39:35.766Z,14.06
2018-08-24T07:40:35.693Z,14.03
2018-08-24T07:41:37.037Z,14.05
2018-08-24T07:42:35.660Z,14.1
2018-08-24T07:43:35.913Z,14.18
2018-08-24T07:44:35.687Z,14.12
2018-08-24T07:45:35.736Z,14.08
2018-08-24T07:46:35.786Z,14.05
2018-08-24T07:47:35.873Z,13.94
2018-08-24T07:48:35.675Z,13.99
2018-08-24T07:49:35.703Z,13.92
2018-08-24T07:50:35.703Z,14.03
2018-08-24T07:51:35.815Z,13.91
2018-08-24T07:52:35.802Z,13.86
2018-08-24T07:53:35.782Z,13.84
2018-08-24T07:54:35.706Z,13.92
2018-08-24T07:55:35.917Z,14.02
2018-08-24T07:56:35.695Z,13.94
2018-08-24T07:57:35.723Z,13.89
2018-08-24T07:58:35.954Z,13.84
2018-08-24T07:59:35.716Z,13.96
2018-08-24T08:00:35.740Z,13.92
2018-08-24T08:01:35.758Z,13.87
2018-08-24T08:02:35.808Z,13.8
2018-08-24T08:03:36.086Z,13.9
2018-08-24T08:04:35.912Z,13.86
2018-08-24T08:05:35.701Z,13.92
2018-08-24T08:06:35.758Z,13.88
2018-08-24T08:07:35.832Z,13.96
2018-08-24T08:08:35.875Z,13.99
2018-08-24T08:09:35.754Z,14.01
2018-08-24T08:10:35.705Z,14.09
2018-08-24T08:11:35.709Z,14.04
2018-08-24T08:12:36.530Z,13.82
2018-08-24T08:13:35.708Z,13.79
2018-08-24T08:14:35.707Z,13.84
2018-08-24T08:15:35.955Z,13.89
2018-08-24T08:16:35.704Z,13.85
2018-08-24T08:17:35.836Z,13.93
2018-08-24T08:18:36.044Z,13.95
2018-08-24T08:19:35.830Z,13.85
2018-08-24T08:20:35.713Z,13.81
2018-08-24T08:21:35.684Z,13.71
2018-08-24T08:22:35.719Z,13.81
2018-08-24T08:23:35.746Z,13.72
2018-08-24T08:24:35.872Z,13.75
2018-08-24T08:25:35.709Z,13.68
2018-08-24T08:26:35.722Z,13.75
2018-08-24T08:27:35.762Z,13.72
2018-08-24T08:28:35.785Z,13.71
2018-08-24T08:29:35.855Z,13.66
2018-08-24T08:30:36.360Z,13.6
2018-08-24T08:31:35.772Z,13.68
2018-08-24T08:32:35.713Z,13.65
2018-08-24T08:33:35.852Z,13.65
2018-08-24T08:34:36.020Z,13.6
2018-08-24T08:35:35.877Z,13.64
2018-08-24T08:36:35.747Z,13.54
2018-08-24T08:37:36.127Z,13.52
2018-08-24T08:38:36.119Z,13.51
2018-08-24T08:39:35.745Z,13.39
2018-08-24T08:40:35.915Z,13.28
2018-08-24T08:41:35.903Z,13.19
2018-08-24T08:42:35.875Z,13.22
2018-08-24T08:43:35.776Z,13.16
2018-08-24T08:44:35.831Z,13.21
2018-08-24T08:45:35.783Z,13.24
2018-08-24T08:46:35.895Z,13.31
2018-08-24T08:47:35.855Z,13.2
2018-08-24T08:48:35.805Z,13.19
2018-08-24T08:49:36.034Z,13.22
2018-08-24T08:50:36.089Z,13.21
2018-08-24T08:51:35.787Z,13.25
2018-08-24T08:52:35.854Z,13.25
2018-08-24T08:53:36.380Z,13.13
2018-08-24T08:54:35.867Z,13.12
2018-08-24T08:55:35.829Z,13.14
2018-08-24T08:56:35.788Z,13
2018-08-24T08:57:35.951Z,13.04
2018-08-24T08:58:36.139Z,13.08
2018-08-24T08:59:35.737Z,13
2018-08-24T09:00:35.850Z,12.94
2018-08-24T09:01:36.052Z,12.8
2018-08-24T09:02:36.179Z,12.88
2018-08-24T09:03:35.848Z,12.87
2018-08-24T09:04:36.593Z,12.9
2018-08-24T09:05:35.900Z,13.01
2018-08-24T09:06:35.885Z,12.79
2018-08-24T09:07:36.122Z,12.59
2018-08-24T09:08:35.897Z,12.54
2018-08-24T09:09:35.972Z,12.51
2018-08-24T09:10:35.967Z,12.54
2018-08-24T09:11:36.124Z,12.57
2018-08-24T09:12:35.856Z,12.55
2018-08-24T09:13:36.125Z,12.49
2018-08-24T09:14:36.194Z,12.55
2018-08-24T09:15:35.948Z,12.49
2018-08-24T09:16:35.811Z,12.45
2018-08-24T09:17:35.796Z,12.52
2018-08-24T09:18:36.667Z,12.52
2018-08-24T09:19:35.861Z,12.65
2018-08-24T09:20:35.865Z,12.73
2018-08-24T09:21:35.817Z,12.87
2018-08-24T09:22:36.317Z,12.97
2018-08-24T09:23:35.867Z,12.34
2018-08-24T09:24:36.005Z,12.39
2018-08-24T09:25:36.573Z,12.65
2018-08-24T09:26:35.840Z,12.33
2018-08-24T09:27:35.948Z,12.67
2018-08-24T09:28:36.085Z,12.87
2018-08-24T09:29:35.808Z,12.83
2018-08-24T09:30:35.824Z,12.89
2018-08-24T09:31:35.947Z,12.77
2018-08-24T09:32:37.450Z,12.89
2018-08-24T09:33:35.808Z,12.99
2018-08-24T09:34:36.292Z,13.12
2018-08-24T09:35:35.821Z,13.07
2018-08-24T09:36:35.880Z,13.39
2018-08-24T09:37:35.851Z,13.25
2018-08-24T09:38:35.941Z,13.44
2018-08-24T09:39:35.847Z,13.15
2018-08-24T09:40:35.927Z,12.83
2018-08-24T09:41:35.837Z,12.5
2018-08-24T09:42:36.169Z,12.62
2018-08-24T09:43:35.812Z,12.3
2018-08-24T09:44:35.986Z,12.43
2018-08-24T09:45:35.954Z,12.49
2018-08-24T09:46:35.951Z,12.46
2018-08-24T09:47:35.912Z,12.52
2018-08-24T09:48:36.506Z,12.4
2018-08-24T09:49:35.938Z,12.38
2018-08-24T09:50:35.855Z,12.51
2018-08-24T09:51:35.968Z,12.42
2018-08-24T09:52:36.146Z,12.49
2018-08-24T09:53:36.248Z,12.4
2018-08-24T09:54:36.053Z,12.55
2018-08-24T09:55:35.874Z,12.6
2018-08-24T09:56:35.925Z,12.44
2018-08-24T09:57:35.901Z,12.72
2018-08-24T09:58:35.885Z,12.75
2018-08-24T09:59:35.848Z,12.72
2018-08-24T10:00:35.932Z,12.94
2018-08-24T10:01:36.320Z,12.9
2018-08-24T10:02:36.530Z,12.97
2018-08-24T10:03:35.939Z,12.79
2018-08-24T10:04:35.855Z,12.75
2018-08-24T10:05:36.164Z,12.68
2018-08-24T10:06:36.221Z,12.49
2018-08-24T10:07:36.081Z,12.84
2018-08-24T10:08:36.212Z,12.51
2018-08-24T10:09:36.043Z,12.36
2018-08-24T10:10:35.921Z,12.5
2018-08-24T10:11:36.118Z,12.83
2018-08-24T10:12:36.583Z,12.6
2018-08-24T10:13:35.900Z,12.57
2018-08-24T10:14:36.305Z,12.84
2018-08-24T10:16:36.118Z,12.48
2018-08-24T10:17:36.200Z,12.53
2018-08-24T10:18:35.990Z,12.37
2018-08-24T10:19:36.140Z,12.76
2018-08-24T10:20:37.033Z,12.78
2018-08-24T10:21:36.110Z,12.94
2018-08-24T10:22:36.114Z,12.7
2018-08-24T10:23:35.959Z,12.57
2018-08-24T10:24:36.024Z,12.75
2018-08-24T10:25:36.033Z,12.86
2018-08-24T10:26:36.132Z,12.81
2018-08-24T10:27:37.115Z,12.57
2018-08-24T10:28:35.929Z,12.47
2018-08-24T10:29:36.671Z,12.31
2018-08-24T10:30:36.081Z,12.49
2018-08-24T10:31:36.115Z,12.36
2018-08-24T10:32:35.911Z,12.31
2018-08-24T10:33:36.359Z,12.39
2018-08-24T10:34:36.151Z,12.6
2018-08-24T10:35:35.890Z,12.54
2018-08-24T10:36:36.139Z,12.61
2018-08-24T10:37:36.341Z,12.43
2018-08-24T10:38:36.229Z,12.58
2018-08-24T10:39:36.241Z,12.45
2018-08-24T10:40:36.034Z,12.81
2018-08-24T10:41:36.231Z,12.53
2018-08-24T10:42:36.675Z,12.53
2018-08-24T10:43:35.897Z,12.72
2018-08-24T10:44:36.265Z,12.66
2018-08-24T10:45:36.380Z,12.7
2018-08-24T10:46:36.059Z,12.24
2018-08-24T10:47:36.445Z,12.57
2018-08-24T10:48:36.301Z,12.43
2018-08-24T10:49:36.004Z,12.3
2018-08-24T10:50:36.124Z,12.31
2018-08-24T10:51:36.583Z,12.24
2018-08-24T10:52:36.119Z,12.52
2018-08-24T10:53:36.120Z,12.64
2018-08-24T10:54:36.031Z,12.33
2018-08-24T10:55:36.343Z,12.46
2018-08-24T10:56:36.080Z,12.34
2018-08-24T10:57:36.246Z,12.32
2018-08-24T10:58:36.056Z,12.31
2018-08-24T10:59:35.991Z,12.25
2018-08-24T11:00:36.074Z,12.21
2018-08-24T11:01:35.992Z,12.28
2018-08-24T11:02:35.921Z,12.02
2018-08-24T11:03:36.097Z,12.06
2018-08-24T11:04:36.005Z,12.15
2018-08-24T11:05:36.008Z,12.15
2018-08-24T11:06:36.107Z,12.2
2018-08-24T11:07:36.749Z,12.44
2018-08-24T11:08:36.012Z,12.36
2018-08-24T11:09:36.015Z,12.32
2018-08-24T11:10:36.254Z,12.2
2018-08-24T11:11:36.153Z,12.35
2018-08-24T11:12:36.042Z,12.29
2018-08-24T11:13:36.056Z,12.23
2018-08-24T11:14:35.958Z,12.26
2018-08-24T11:15:36.072Z,12.21
2018-08-24T11:16:37.364Z,12.2
2018-08-24T11:17:36.305Z,11.87
2018-08-24T11:18:36.096Z,11.82
2018-08-24T11:19:36.006Z,11.96
2018-08-24T11:20:36.089Z,12.06
2018-08-24T11:21:36.039Z,12.08
2018-08-24T11:22:36.443Z,12.03
2018-08-24T11:23:35.965Z,12.23
2018-08-24T11:24:37.355Z,12.26
2018-08-24T11:25:36.333Z,12.14
2018-08-24T11:26:36.028Z,12.23
2018-08-24T11:27:36.174Z,12.18
2018-08-24T11:28:36.673Z,12.2
2018-08-24T11:29:35.974Z,12.21
2018-08-24T11:30:36.189Z,12.24
2018-08-24T11:31:36.181Z,12.3
2018-08-24T11:32:36.302Z,12.41
2018-08-24T11:33:36.113Z,12.26
2018-08-24T11:34:36.102Z,12.23
2018-08-24T11:35:36.066Z,12.45
2018-08-24T11:36:37.147Z,12.34
2018-08-24T11:37:35.964Z,12.41
2018-08-24T11:38:36.100Z,12.47
2018-08-24T11:39:36.247Z,12.43
2018-08-24T11:40:36.139Z,12.34
2018-08-24T11:41:36.196Z,12.41
2018-08-24T11:42:36.585Z,12.46
2018-08-24T11:43:36.160Z,12.35
2018-08-24T11:44:36.069Z,12.49
2018-08-24T11:45:36.576Z,12.43
2018-08-24T11:46:36.132Z,12.4
2018-08-24T11:47:36.510Z,12.5
2018-08-24T11:48:36.209Z,12.53
2018-08-24T11:49:36.144Z,12.53
2018-08-24T11:50:36.367Z,12.58
2018-08-24T11:51:36.318Z,12.54
2018-08-24T11:52:36.035Z,12.45
2018-08-24T11:53:36.158Z,12.53
2018-08-24T11:54:37.332Z,12.46
2018-08-24T11:55:35.976Z,12.35
2018-08-24T11:56:36.202Z,12.45
2018-08-24T11:57:36.258Z,12.54
2018-08-24T11:58:36.089Z,12.5
2018-08-24T11:59:36.064Z,12.53
2018-08-24T12:00:36.183Z,12.54
2018-08-24T12:01:36.278Z,12.65
2018-08-24T12:02:36.091Z,12.64
2018-08-24T12:03:36.532Z,12.68
2018-08-24T12:04:36.104Z,12.65
2018-08-24T12:05:36.199Z,12.63
2018-08-24T12:06:36.113Z,12.55
2018-08-24T12:07:36.191Z,12.3
2018-08-24T12:08:36.070Z,12.36
2018-08-24T12:09:37.255Z,12.42
2018-08-24T12:10:37.184Z,12.31
2018-08-24T12:11:36.085Z,12.31
2018-08-24T12:12:36.847Z,12.16
2018-08-24T12:13:36.466Z,12.11
2018-08-24T12:14:36.259Z,12.31
2018-08-24T12:15:36.338Z,12.35
2018-08-24T12:16:36.065Z,12.26
2018-08-24T12:17:36.022Z,12.03
2018-08-24T12:18:36.398Z,12.04
2018-08-24T12:19:36.063Z,11.91
2018-08-24T12:20:36.096Z,11.92
2018-08-24T12:21:36.410Z,11.99
2018-08-24T12:22:36.107Z,11.93
2018-08-24T12:23:36.111Z,11.81
2018-08-24T12:24:37.043Z,11.86
2018-08-24T12:25:36.445Z,11.88
2018-08-24T12:26:36.684Z,11.91
2018-08-24T12:27:36.273Z,11.91
2018-08-24T12:28:36.281Z,11.96
2018-08-24T12:29:36.138Z,11.74
2018-08-24T12:30:36.174Z,11.82
2018-08-24T12:31:36.052Z,11.74
2018-08-24T12:32:36.039Z,11.77
2018-08-24T12:33:36.114Z,11.74
2018-08-24T12:34:36.554Z,11.64
2018-08-24T12:35:36.062Z,11.88
2018-08-24T12:36:36.345Z,11.9
2018-08-24T12:37:36.091Z,12
2018-08-24T12:38:36.182Z,12.02
2018-08-24T12:39:36.153Z,11.99
2018-08-24T12:40:36.398Z,11.94
2018-08-24T12:41:36.248Z,11.86
2018-08-24T12:42:37.296Z,11.88
2018-08-24T12:43:37.100Z,12.06
2018-08-24T12:44:36.041Z,12
2018-08-24T12:45:36.365Z,12.04
2018-08-24T12:46:36.184Z,11.93
2018-08-24T12:47:36.162Z,12.01
2018-08-24T12:48:36.716Z,12.07
2018-08-24T12:49:36.198Z,12.04
2018-08-24T12:50:36.080Z,12.1
2018-08-24T12:51:36.320Z,12
2018-08-24T12:52:36.276Z,11.97
2018-08-24T12:53:36.151Z,11.98
2018-08-24T12:54:38.426Z,11.99
2018-08-24T12:55:36.100Z,12.05
2018-08-24T12:56:36.038Z,11.89